sensor_id;sensor_type;location;lat;lon;timestamp;temperature;humidity
76567;DHT22;65428;53.194;6.132;2024-01-11T00:01:27;-5.70;99.90
76567;DHT22;65428;53.194;6.132;2024-01-11T00:03:52;-5.50;99.90
76567;DHT22;65428;53.194;6.132;2024-01-11T00:06:18;-5.70;99.90
76567;DHT22;65428;53.194;6.132;2024-01-11T00:08:44;-5.80;99.90
76567;DHT22;65428;53.194;6.132;2024-01-11T00:11:10;-5.80;99.90
76567;DHT22;65428;53.194;6.132;2024-01-11T00:13:35;-5.80;99.90
76567;DHT22;65428;53.194;6.132;2024-01-11T00:16:01;-5.90;99.90
76567;DHT22;65428;53.194;6.132;2024-01-11T00:18:27;-5.90;99.90
76567;DHT22;65428;53.194;6.132;2024-01-11T00:20:52;-5.90;99.90
76567;DHT22;65428;53.194;6.132;2024-01-11T00:23:18;-5.90;99.90
76567;DHT22;65428;53.194;6.132;2024-01-11T00:25:43;-5.90;99.90
76567;DHT22;65428;53.194;6.132;2024-01-11T00:28:09;-5.90;99.90
76567;DHT22;65428;53.194;6.132;2024-01-11T00:30:35;-5.90;99.90
76567;DHT22;65428;53.194;6.132;2024-01-11T00:33:00;-5.70;99.90
76567;DHT22;65428;53.194;6.132;2024-01-11T00:35:26;-5.90;99.90
76567;DHT22;65428;53.194;6.132;2024-01-11T00:37:52;-5.90;99.90
76567;DHT22;65428;53.194;6.132;2024-01-11T00:40:17;-5.80;99.90
76567;DHT22;65428;53.194;6.132;2024-01-11T00:42:43;-6.00;99.90
76567;DHT22;65428;53.194;6.132;2024-01-11T00:45:08;-6.00;99.90
76567;DHT22;65428;53.194;6.132;2024-01-11T00:47:34;-6.00;99.90
76567;DHT22;65428;53.194;6.132;2024-01-11T00:50:00;-6.00;99.90
76567;DHT22;65428;53.194;6.132;2024-01-11T00:52:25;-6.00;99.90
76567;DHT22;65428;53.194;6.132;2024-01-11T00:54:51;-6.00;99.90
76567;DHT22;65428;53.194;6.132;2024-01-11T00:57:17;-6.00;99.90
76567;DHT22;65428;53.194;6.132;2024-01-11T00:59:42;-6.00;99.90
76567;DHT22;65428;53.194;6.132;2024-01-11T01:02:08;-6.00;99.90
76567;DHT22;65428;53.194;6.132;2024-01-11T01:04:37;-6.00;99.90
76567;DHT22;65428;53.194;6.132;2024-01-11T01:07:03;-5.90;99.90
76567;DHT22;65428;53.194;6.132;2024-01-11T01:09:29;-5.90;99.90
76567;DHT22;65428;53.194;6.132;2024-01-11T01:11:56;-5.90;99.90
76567;DHT22;65428;53.194;6.132;2024-01-11T01:14:21;-5.90;99.90
76567;DHT22;65428;53.194;6.132;2024-01-11T01:16:47;-5.90;99.90
76567;DHT22;65428;53.194;6.132;2024-01-11T01:19:12;-5.90;99.90
76567;DHT22;65428;53.194;6.132;2024-01-11T01:21:38;-5.80;99.90
76567;DHT22;65428;53.194;6.132;2024-01-11T01:24:04;-5.90;99.90
76567;DHT22;65428;53.194;6.132;2024-01-11T01:26:29;-5.90;99.90
76567;DHT22;65428;53.194;6.132;2024-01-11T01:28:57;-5.90;99.90
76567;DHT22;65428;53.194;6.132;2024-01-11T01:31:22;-5.90;99.90
76567;DHT22;65428;53.194;6.132;2024-01-11T01:33:48;-5.90;99.90
76567;DHT22;65428;53.194;6.132;2024-01-11T01:36:14;-5.90;99.90
76567;DHT22;65428;53.194;6.132;2024-01-11T01:38:40;-5.90;99.90
76567;DHT22;65428;53.194;6.132;2024-01-11T01:41:05;-6.00;99.90
76567;DHT22;65428;53.194;6.132;2024-01-11T01:43:31;-6.00;99.90
76567;DHT22;65428;53.194;6.132;2024-01-11T01:45:56;-6.00;99.90
76567;DHT22;65428;53.194;6.132;2024-01-11T01:48:22;-6.10;99.90
76567;DHT22;65428;53.194;6.132;2024-01-11T01:50:48;-6.10;99.90
76567;DHT22;65428;53.194;6.132;2024-01-11T01:53:27;-6.10;99.90
76567;DHT22;65428;53.194;6.132;2024-01-11T01:55:54;-6.10;99.90
76567;DHT22;65428;53.194;6.132;2024-01-11T01:58:20;-6.10;99.90
76567;DHT22;65428;53.194;6.132;2024-01-11T02:00:48;-6.10;99.90
76567;DHT22;65428;53.194;6.132;2024-01-11T02:03:16;-6.10;99.90
76567;DHT22;65428;53.194;6.132;2024-01-11T02:05:42;-6.10;99.90
76567;DHT22;65428;53.194;6.132;2024-01-11T02:08:08;-6.10;99.90
76567;DHT22;65428;53.194;6.132;2024-01-11T02:10:37;-6.00;99.90
76567;DHT22;65428;53.194;6.132;2024-01-11T02:13:04;-6.00;99.90
76567;DHT22;65428;53.194;6.132;2024-01-11T02:15:29;-6.00;99.90
76567;DHT22;65428;53.194;6.132;2024-01-11T02:17:55;-6.00;99.90
76567;DHT22;65428;53.194;6.132;2024-01-11T02:20:21;-6.10;99.90
76567;DHT22;65428;53.194;6.132;2024-01-11T02:22:50;-6.10;99.90
76567;DHT22;65428;53.194;6.132;2024-01-11T02:25:18;-6.20;99.90
76567;DHT22;65428;53.194;6.132;2024-01-11T02:27:50;-6.20;99.90
76567;DHT22;65428;53.194;6.132;2024-01-11T02:30:17;-6.20;99.90
76567;DHT22;65428;53.194;6.132;2024-01-11T02:32:48;-6.20;99.90
76567;DHT22;65428;53.194;6.132;2024-01-11T02:35:18;-6.20;99.90
76567;DHT22;65428;53.194;6.132;2024-01-11T02:37:45;-6.20;99.90
76567;DHT22;65428;53.194;6.132;2024-01-11T02:40:13;-6.10;99.90
76567;DHT22;65428;53.194;6.132;2024-01-11T02:42:39;-6.10;99.90
76567;DHT22;65428;53.194;6.132;2024-01-11T02:45:05;-6.00;99.90
76567;DHT22;65428;53.194;6.132;2024-01-11T02:47:31;-6.00;99.90
76567;DHT22;65428;53.194;6.132;2024-01-11T02:49:56;-5.90;99.90
76567;DHT22;65428;53.194;6.132;2024-01-11T02:52:23;-5.90;99.90
76567;DHT22;65428;53.194;6.132;2024-01-11T02:54:49;-5.90;99.90
76567;DHT22;65428;53.194;6.132;2024-01-11T02:57:14;-5.70;99.90
76567;DHT22;65428;53.194;6.132;2024-01-11T02:59:41;-5.50;99.90
76567;DHT22;65428;53.194;6.132;2024-01-11T03:02:07;-6.00;99.90
76567;DHT22;65428;53.194;6.132;2024-01-11T03:04:33;-5.80;99.90
76567;DHT22;65428;53.194;6.132;2024-01-11T03:06:58;-6.00;99.90
76567;DHT22;65428;53.194;6.132;2024-01-11T03:09:24;-6.00;99.90
76567;DHT22;65428;53.194;6.132;2024-01-11T03:11:49;-6.00;99.90
76567;DHT22;65428;53.194;6.132;2024-01-11T03:14:15;-6.00;99.90
76567;DHT22;65428;53.194;6.132;2024-01-11T03:16:40;-6.00;99.90
76567;DHT22;65428;53.194;6.132;2024-01-11T03:19:07;-6.00;99.90
76567;DHT22;65428;53.194;6.132;2024-01-11T03:21:32;-6.00;99.90
76567;DHT22;65428;53.194;6.132;2024-01-11T03:23:58;-6.00;99.90
76567;DHT22;65428;53.194;6.132;2024-01-11T03:26:25;-6.00;99.90
76567;DHT22;65428;53.194;6.132;2024-01-11T03:28:50;-6.10;99.90
76567;DHT22;65428;53.194;6.132;2024-01-11T03:31:16;-6.10;99.90
76567;DHT22;65428;53.194;6.132;2024-01-11T03:33:42;-6.10;99.90
76567;DHT22;65428;53.194;6.132;2024-01-11T03:36:09;-6.20;99.90
76567;DHT22;65428;53.194;6.132;2024-01-11T03:38:35;-6.20;99.90
76567;DHT22;65428;53.194;6.132;2024-01-11T03:41:00;-6.20;99.90
76567;DHT22;65428;53.194;6.132;2024-01-11T03:43:26;-6.20;99.90
76567;DHT22;65428;53.194;6.132;2024-01-11T03:45:51;-6.20;99.90
76567;DHT22;65428;53.194;6.132;2024-01-11T03:48:17;-6.20;99.90
76567;DHT22;65428;53.194;6.132;2024-01-11T03:50:42;-6.20;99.90
76567;DHT22;65428;53.194;6.132;2024-01-11T03:53:08;-6.20;99.90
76567;DHT22;65428;53.194;6.132;2024-01-11T03:55:34;-6.20;99.90
76567;DHT22;65428;53.194;6.132;2024-01-11T03:57:59;-6.20;99.90
76567;DHT22;65428;53.194;6.132;2024-01-11T04:00:25;-6.30;99.90
76567;DHT22;65428;53.194;6.132;2024-01-11T04:02:50;-6.20;99.90
76567;DHT22;65428;53.194;6.132;2024-01-11T04:05:16;-6.30;99.90
76567;DHT22;65428;53.194;6.132;2024-01-11T04:07:42;-6.30;99.90
76567;DHT22;65428;53.194;6.132;2024-01-11T04:10:08;-6.30;99.90
76567;DHT22;65428;53.194;6.132;2024-01-11T04:12:36;-6.30;99.90
76567;DHT22;65428;53.194;6.132;2024-01-11T04:15:05;-6.10;99.90
76567;DHT22;65428;53.194;6.132;2024-01-11T04:17:31;-6.30;99.90
76567;DHT22;65428;53.194;6.132;2024-01-11T04:19:57;-6.20;99.90
76567;DHT22;65428;53.194;6.132;2024-01-11T04:22:23;-6.30;99.90
76567;DHT22;65428;53.194;6.132;2024-01-11T04:24:48;-6.30;99.90
76567;DHT22;65428;53.194;6.132;2024-01-11T04:27:14;-6.30;99.90
76567;DHT22;65428;53.194;6.132;2024-01-11T04:29:40;-6.30;99.90
76567;DHT22;65428;53.194;6.132;2024-01-11T04:32:05;-6.30;99.90
76567;DHT22;65428;53.194;6.132;2024-01-11T04:34:31;-6.20;99.90
76567;DHT22;65428;53.194;6.132;2024-01-11T04:36:57;-6.10;99.90
76567;DHT22;65428;53.194;6.132;2024-01-11T04:39:22;-6.10;99.90
76567;DHT22;65428;53.194;6.132;2024-01-11T04:41:48;-5.90;99.90
76567;DHT22;65428;53.194;6.132;2024-01-11T04:44:14;-5.90;99.90
76567;DHT22;65428;53.194;6.132;2024-01-11T04:46:40;-5.80;99.90
76567;DHT22;65428;53.194;6.132;2024-01-11T04:49:05;-5.80;99.90
76567;DHT22;65428;53.194;6.132;2024-01-11T04:51:31;-5.70;99.90
76567;DHT22;65428;53.194;6.132;2024-01-11T04:53:56;-5.60;99.90
76567;DHT22;65428;53.194;6.132;2024-01-11T04:56:22;-5.60;99.90
76567;DHT22;65428;53.194;6.132;2024-01-11T04:58:48;-5.50;99.90
76567;DHT22;65428;53.194;6.132;2024-01-11T05:01:17;-5.30;99.90
76567;DHT22;65428;53.194;6.132;2024-01-11T05:03:44;-5.20;99.90
76567;DHT22;65428;53.194;6.132;2024-01-11T05:06:18;-5.10;99.90
76567;DHT22;65428;53.194;6.132;2024-01-11T05:08:44;-5.00;99.90
76567;DHT22;65428;53.194;6.132;2024-01-11T05:13:43;-4.80;99.90
76567;DHT22;65428;53.194;6.132;2024-01-11T05:16:20;-4.70;99.90
76567;DHT22;65428;53.194;6.132;2024-01-11T05:18:46;-4.60;99.90
76567;DHT22;65428;53.194;6.132;2024-01-11T05:21:12;-4.50;99.90
76567;DHT22;65428;53.194;6.132;2024-01-11T05:23:38;-4.40;99.90
76567;DHT22;65428;53.194;6.132;2024-01-11T05:26:03;-4.30;99.90
76567;DHT22;65428;53.194;6.132;2024-01-11T05:28:29;-4.20;99.90
76567;DHT22;65428;53.194;6.132;2024-01-11T05:30:54;-3.90;99.90
76567;DHT22;65428;53.194;6.132;2024-01-11T05:33:20;-4.00;99.90
76567;DHT22;65428;53.194;6.132;2024-01-11T05:35:46;-3.90;99.90
76567;DHT22;65428;53.194;6.132;2024-01-11T05:38:11;-3.90;99.90
76567;DHT22;65428;53.194;6.132;2024-01-11T05:40:37;-3.90;99.90
76567;DHT22;65428;53.194;6.132;2024-01-11T05:43:03;-3.80;99.90
76567;DHT22;65428;53.194;6.132;2024-01-11T05:45:29;-3.70;99.90
76567;DHT22;65428;53.194;6.132;2024-01-11T05:47:54;-3.60;99.90
76567;DHT22;65428;53.194;6.132;2024-01-11T05:50:20;-3.60;99.90
76567;DHT22;65428;53.194;6.132;2024-01-11T05:52:46;-3.50;99.90
76567;DHT22;65428;53.194;6.132;2024-01-11T05:55:12;-3.40;99.90
76567;DHT22;65428;53.194;6.132;2024-01-11T05:57:37;-3.40;99.90
76567;DHT22;65428;53.194;6.132;2024-01-11T06:00:04;-3.30;99.90
76567;DHT22;65428;53.194;6.132;2024-01-11T06:02:30;-3.30;99.90
76567;DHT22;65428;53.194;6.132;2024-01-11T06:04:57;-3.20;99.90
76567;DHT22;65428;53.194;6.132;2024-01-11T06:07:22;-3.20;99.90
76567;DHT22;65428;53.194;6.132;2024-01-11T06:09:49;-3.10;99.90
76567;DHT22;65428;53.194;6.132;2024-01-11T06:12:14;-3.10;99.90
76567;DHT22;65428;53.194;6.132;2024-01-11T06:14:40;-3.00;99.90
76567;DHT22;65428;53.194;6.132;2024-01-11T06:17:06;-3.00;99.90
76567;DHT22;65428;53.194;6.132;2024-01-11T06:19:32;-2.90;99.90
76567;DHT22;65428;53.194;6.132;2024-01-11T06:21:58;-2.90;99.90
76567;DHT22;65428;53.194;6.132;2024-01-11T06:24:23;-2.80;99.90
76567;DHT22;65428;53.194;6.132;2024-01-11T06:26:49;-2.60;99.90
76567;DHT22;65428;53.194;6.132;2024-01-11T06:29:15;-2.70;99.90
76567;DHT22;65428;53.194;6.132;2024-01-11T06:31:40;-2.70;99.90
76567;DHT22;65428;53.194;6.132;2024-01-11T06:34:06;-2.60;99.90
76567;DHT22;65428;53.194;6.132;2024-01-11T06:36:32;-2.60;99.90
76567;DHT22;65428;53.194;6.132;2024-01-11T06:38:57;-2.60;99.90
76567;DHT22;65428;53.194;6.132;2024-01-11T06:41:23;-2.50;99.90
76567;DHT22;65428;53.194;6.132;2024-01-11T06:43:49;-2.50;99.90
76567;DHT22;65428;53.194;6.132;2024-01-11T06:46:19;-2.60;99.90
76567;DHT22;65428;53.194;6.132;2024-01-11T06:48:45;-2.40;99.90
76567;DHT22;65428;53.194;6.132;2024-01-11T06:51:15;-2.20;99.90
76567;DHT22;65428;53.194;6.132;2024-01-11T06:53:41;-2.20;99.90
76567;DHT22;65428;53.194;6.132;2024-01-11T06:56:17;-2.30;99.90
76567;DHT22;65428;53.194;6.132;2024-01-11T06:58:44;-2.30;99.90
76567;DHT22;65428;53.194;6.132;2024-01-11T07:01:10;-2.20;99.90
76567;DHT22;65428;53.194;6.132;2024-01-11T07:03:36;-1.90;99.90
76567;DHT22;65428;53.194;6.132;2024-01-11T07:06:03;-2.20;99.90
76567;DHT22;65428;53.194;6.132;2024-01-11T07:08:29;-2.10;99.90
76567;DHT22;65428;53.194;6.132;2024-01-11T07:10:55;-2.10;99.90
76567;DHT22;65428;53.194;6.132;2024-01-11T07:13:21;-2.00;99.90
76567;DHT22;65428;53.194;6.132;2024-01-11T07:15:46;-2.00;99.90
76567;DHT22;65428;53.194;6.132;2024-01-11T07:18:14;-2.00;99.90
76567;DHT22;65428;53.194;6.132;2024-01-11T07:20:40;-1.90;99.90
76567;DHT22;65428;53.194;6.132;2024-01-11T07:23:06;-1.60;99.90
76567;DHT22;65428;53.194;6.132;2024-01-11T07:25:32;-1.80;99.90
76567;DHT22;65428;53.194;6.132;2024-01-11T07:27:57;-1.90;99.90
76567;DHT22;65428;53.194;6.132;2024-01-11T07:30:24;-1.80;99.90
76567;DHT22;65428;53.194;6.132;2024-01-11T07:32:49;-1.80;99.90
76567;DHT22;65428;53.194;6.132;2024-01-11T07:35:15;-1.80;99.90
76567;DHT22;65428;53.194;6.132;2024-01-11T07:37:41;-1.70;99.90
76567;DHT22;65428;53.194;6.132;2024-01-11T07:40:07;-1.70;99.90
76567;DHT22;65428;53.194;6.132;2024-01-11T07:42:37;-1.70;99.90
76567;DHT22;65428;53.194;6.132;2024-01-11T07:45:04;-1.70;99.90
76567;DHT22;65428;53.194;6.132;2024-01-11T07:47:31;-1.60;99.90
76567;DHT22;65428;53.194;6.132;2024-01-11T07:49:56;-1.60;99.90
76567;DHT22;65428;53.194;6.132;2024-01-11T07:52:22;-1.60;99.90
76567;DHT22;65428;53.194;6.132;2024-01-11T07:54:47;-1.50;99.90
76567;DHT22;65428;53.194;6.132;2024-01-11T07:57:13;-1.50;99.90
76567;DHT22;65428;53.194;6.132;2024-01-11T07:59:39;-1.50;99.90
76567;DHT22;65428;53.194;6.132;2024-01-11T08:02:05;-1.50;99.90
76567;DHT22;65428;53.194;6.132;2024-01-11T08:04:31;-1.40;99.90
76567;DHT22;65428;53.194;6.132;2024-01-11T08:06:57;-1.40;99.90
76567;DHT22;65428;53.194;6.132;2024-01-11T08:09:25;-1.40;99.90
76567;DHT22;65428;53.194;6.132;2024-01-11T08:11:51;-1.40;99.90
76567;DHT22;65428;53.194;6.132;2024-01-11T08:14:20;-1.30;99.90
76567;DHT22;65428;53.194;6.132;2024-01-11T08:16:45;-1.30;99.90
76567;DHT22;65428;53.194;6.132;2024-01-11T08:19:11;-1.30;99.90
76567;DHT22;65428;53.194;6.132;2024-01-11T08:21:39;-1.20;99.90
76567;DHT22;65428;53.194;6.132;2024-01-11T08:24:05;-1.20;99.90
76567;DHT22;65428;53.194;6.132;2024-01-11T08:26:31;-1.20;99.90
76567;DHT22;65428;53.194;6.132;2024-01-11T08:28:56;-1.10;99.90
76567;DHT22;65428;53.194;6.132;2024-01-11T08:31:22;-1.10;99.90
76567;DHT22;65428;53.194;6.132;2024-01-11T08:33:48;-1.00;99.90
76567;DHT22;65428;53.194;6.132;2024-01-11T08:36:13;-1.00;99.90
76567;DHT22;65428;53.194;6.132;2024-01-11T08:38:39;-1.00;99.90
76567;DHT22;65428;53.194;6.132;2024-01-11T08:41:06;-0.90;99.90
76567;DHT22;65428;53.194;6.132;2024-01-11T08:43:32;-0.80;99.90
76567;DHT22;65428;53.194;6.132;2024-01-11T08:45:58;-0.80;99.90
76567;DHT22;65428;53.194;6.132;2024-01-11T08:48:23;-0.80;99.90
76567;DHT22;65428;53.194;6.132;2024-01-11T08:50:49;-0.60;99.90
76567;DHT22;65428;53.194;6.132;2024-01-11T08:53:15;-0.70;99.90
76567;DHT22;65428;53.194;6.132;2024-01-11T08:55:41;-0.60;99.90
76567;DHT22;65428;53.194;6.132;2024-01-11T08:58:08;-0.40;99.90
76567;DHT22;65428;53.194;6.132;2024-01-11T09:00:33;-0.50;99.90
76567;DHT22;65428;53.194;6.132;2024-01-11T09:02:59;-0.40;99.90
76567;DHT22;65428;53.194;6.132;2024-01-11T09:05:25;-0.40;99.90
76567;DHT22;65428;53.194;6.132;2024-01-11T09:07:50;-0.30;99.90
76567;DHT22;65428;53.194;6.132;2024-01-11T09:10:16;-0.30;99.90
76567;DHT22;65428;53.194;6.132;2024-01-11T09:12:42;-0.10;99.90
76567;DHT22;65428;53.194;6.132;2024-01-11T09:15:08;-0.20;99.90
76567;DHT22;65428;53.194;6.132;2024-01-11T09:17:33;-0.10;99.90
76567;DHT22;65428;53.194;6.132;2024-01-11T09:19:59;-0.10;99.90
76567;DHT22;65428;53.194;6.132;2024-01-11T09:22:25;0.00;99.90
76567;DHT22;65428;53.194;6.132;2024-01-11T09:24:51;0.00;99.90
76567;DHT22;65428;53.194;6.132;2024-01-11T09:27:17;0.10;99.90
76567;DHT22;65428;53.194;6.132;2024-01-11T09:29:44;0.30;99.90
76567;DHT22;65428;53.194;6.132;2024-01-11T09:32:10;0.30;99.90
76567;DHT22;65428;53.194;6.132;2024-01-11T09:34:35;0.30;99.90
76567;DHT22;65428;53.194;6.132;2024-01-11T09:37:01;0.30;99.90
76567;DHT22;65428;53.194;6.132;2024-01-11T09:39:27;0.40;99.90
76567;DHT22;65428;53.194;6.132;2024-01-11T09:41:58;0.40;99.90
76567;DHT22;65428;53.194;6.132;2024-01-11T09:44:25;0.50;99.90
76567;DHT22;65428;53.194;6.132;2024-01-11T09:46:52;0.60;99.90
76567;DHT22;65428;53.194;6.132;2024-01-11T09:49:19;0.80;99.90
76567;DHT22;65428;53.194;6.132;2024-01-11T09:51:47;0.70;99.90
76567;DHT22;65428;53.194;6.132;2024-01-11T09:54:14;0.80;99.90
76567;DHT22;65428;53.194;6.132;2024-01-11T09:56:41;0.80;99.90
76567;DHT22;65428;53.194;6.132;2024-01-11T09:59:08;0.90;99.90
76567;DHT22;65428;53.194;6.132;2024-01-11T10:01:35;1.10;99.90
76567;DHT22;65428;53.194;6.132;2024-01-11T10:04:02;1.00;99.90
76567;DHT22;65428;53.194;6.132;2024-01-11T10:06:32;1.00;99.90
76567;DHT22;65428;53.194;6.132;2024-01-11T10:08:59;1.00;99.90
76567;DHT22;65428;53.194;6.132;2024-01-11T10:11:25;1.10;99.90
76567;DHT22;65428;53.194;6.132;2024-01-11T10:13:56;1.10;99.90
76567;DHT22;65428;53.194;6.132;2024-01-11T10:16:22;1.10;99.90
76567;DHT22;65428;53.194;6.132;2024-01-11T10:18:48;1.20;99.90
76567;DHT22;65428;53.194;6.132;2024-01-11T10:21:13;1.20;99.90
76567;DHT22;65428;53.194;6.132;2024-01-11T10:23:39;1.20;99.90
76567;DHT22;65428;53.194;6.132;2024-01-11T10:26:05;1.30;99.90
76567;DHT22;65428;53.194;6.132;2024-01-11T10:28:33;1.20;99.90
76567;DHT22;65428;53.194;6.132;2024-01-11T10:31:03;1.20;99.90
76567;DHT22;65428;53.194;6.132;2024-01-11T10:33:33;1.20;99.90
76567;DHT22;65428;53.194;6.132;2024-01-11T10:36:00;1.20;99.90
76567;DHT22;65428;53.194;6.132;2024-01-11T10:38:26;1.20;99.90
76567;DHT22;65428;53.194;6.132;2024-01-11T10:40:55;1.20;99.90
76567;DHT22;65428;53.194;6.132;2024-01-11T10:43:21;1.20;99.90
76567;DHT22;65428;53.194;6.132;2024-01-11T10:45:52;1.30;99.90
76567;DHT22;65428;53.194;6.132;2024-01-11T10:48:21;1.30;99.90
76567;DHT22;65428;53.194;6.132;2024-01-11T10:50:50;1.30;99.90
76567;DHT22;65428;53.194;6.132;2024-01-11T10:56:22;1.40;99.90
76567;DHT22;65428;53.194;6.132;2024-01-11T10:58:49;1.50;99.90
76567;DHT22;65428;53.194;6.132;2024-01-11T11:01:16;1.50;99.90
76567;DHT22;65428;53.194;6.132;2024-01-11T11:03:43;1.50;99.90
76567;DHT22;65428;53.194;6.132;2024-01-11T11:06:11;1.50;99.90
76567;DHT22;65428;53.194;6.132;2024-01-11T11:08:37;1.50;99.90
76567;DHT22;65428;53.194;6.132;2024-01-11T11:11:04;1.50;99.90
76567;DHT22;65428;53.194;6.132;2024-01-11T11:13:34;1.50;99.90
76567;DHT22;65428;53.194;6.132;2024-01-11T11:16:02;1.60;99.90
76567;DHT22;65428;53.194;6.132;2024-01-11T11:18:32;1.60;99.90
76567;DHT22;65428;53.194;6.132;2024-01-11T11:21:00;1.60;99.90
76567;DHT22;65428;53.194;6.132;2024-01-11T11:23:26;1.70;99.90
76567;DHT22;65428;53.194;6.132;2024-01-11T11:25:54;1.70;99.90
76567;DHT22;65428;53.194;6.132;2024-01-11T11:28:22;1.70;99.90
76567;DHT22;65428;53.194;6.132;2024-01-11T11:30:49;1.70;99.90
76567;DHT22;65428;53.194;6.132;2024-01-11T11:33:24;2.00;99.90
76567;DHT22;65428;53.194;6.132;2024-01-11T11:35:53;1.80;99.90
76567;DHT22;65428;53.194;6.132;2024-01-11T11:38:25;1.80;99.90
76567;DHT22;65428;53.194;6.132;2024-01-11T11:40:52;1.80;99.90
76567;DHT22;65428;53.194;6.132;2024-01-11T11:43:19;1.80;99.90
76567;DHT22;65428;53.194;6.132;2024-01-11T11:45:51;1.90;99.90
76567;DHT22;65428;53.194;6.132;2024-01-11T11:51:08;1.90;99.90
76567;DHT22;65428;53.194;6.132;2024-01-11T11:53:35;1.90;99.90
76567;DHT22;65428;53.194;6.132;2024-01-11T11:56:01;2.00;99.90
76567;DHT22;65428;53.194;6.132;2024-01-11T11:58:28;2.10;99.90
76567;DHT22;65428;53.194;6.132;2024-01-11T12:00:55;2.00;99.90
76567;DHT22;65428;53.194;6.132;2024-01-11T12:05:55;2.10;99.90
76567;DHT22;65428;53.194;6.132;2024-01-11T12:08:22;2.10;99.90
76567;DHT22;65428;53.194;6.132;2024-01-11T12:10:48;2.30;99.90
76567;DHT22;65428;53.194;6.132;2024-01-11T12:13:14;1.90;99.90
76567;DHT22;65428;53.194;6.132;2024-01-11T12:15:40;2.10;99.90
76567;DHT22;65428;53.194;6.132;2024-01-11T12:18:06;2.10;99.90
76567;DHT22;65428;53.194;6.132;2024-01-11T12:20:35;2.10;99.90
76567;DHT22;65428;53.194;6.132;2024-01-11T12:23:01;2.20;99.90
76567;DHT22;65428;53.194;6.132;2024-01-11T12:33:38;2.00;99.90
76567;DHT22;65428;53.194;6.132;2024-01-11T12:37:02;2.00;99.90
76567;DHT22;65428;53.194;6.132;2024-01-11T12:43:04;2.00;99.90
76567;DHT22;65428;53.194;6.132;2024-01-11T12:45:31;2.20;99.90
76567;DHT22;65428;53.194;6.132;2024-01-11T12:48:01;2.30;99.90
76567;DHT22;65428;53.194;6.132;2024-01-11T12:50:29;2.20;99.90
76567;DHT22;65428;53.194;6.132;2024-01-11T12:53:14;2.30;99.90
76567;DHT22;65428;53.194;6.132;2024-01-11T12:55:47;2.60;99.90
76567;DHT22;65428;53.194;6.132;2024-01-11T12:58:14;2.30;99.90
76567;DHT22;65428;53.194;6.132;2024-01-11T13:00:44;2.30;99.90
76567;DHT22;65428;53.194;6.132;2024-01-11T13:03:27;2.40;99.90
76567;DHT22;65428;53.194;6.132;2024-01-11T13:06:08;2.40;99.90
76567;DHT22;65428;53.194;6.132;2024-01-11T13:08:34;2.40;99.90
76567;DHT22;65428;53.194;6.132;2024-01-11T13:11:06;2.40;99.90
76567;DHT22;65428;53.194;6.132;2024-01-11T13:13:33;2.40;99.90
76567;DHT22;65428;53.194;6.132;2024-01-11T13:16:00;2.70;99.90
76567;DHT22;65428;53.194;6.132;2024-01-11T13:18:26;2.40;99.90
76567;DHT22;65428;53.194;6.132;2024-01-11T13:20:52;2.40;99.90
76567;DHT22;65428;53.194;6.132;2024-01-11T13:23:19;2.40;99.90
76567;DHT22;65428;53.194;6.132;2024-01-11T13:25:47;2.40;99.90
76567;DHT22;65428;53.194;6.132;2024-01-11T13:28:13;2.40;99.90
76567;DHT22;65428;53.194;6.132;2024-01-11T13:30:43;2.40;99.90
76567;DHT22;65428;53.194;6.132;2024-01-11T13:33:11;2.40;99.90
76567;DHT22;65428;53.194;6.132;2024-01-11T13:35:37;2.50;99.90
76567;DHT22;65428;53.194;6.132;2024-01-11T13:38:04;2.50;99.90
76567;DHT22;65428;53.194;6.132;2024-01-11T13:40:33;2.60;99.90
76567;DHT22;65428;53.194;6.132;2024-01-11T13:42:59;2.50;99.90
76567;DHT22;65428;53.194;6.132;2024-01-11T13:45:25;2.50;99.90
76567;DHT22;65428;53.194;6.132;2024-01-11T13:47:52;2.50;99.90
76567;DHT22;65428;53.194;6.132;2024-01-11T13:50:21;2.70;99.90
76567;DHT22;65428;53.194;6.132;2024-01-11T13:52:49;2.50;99.90
76567;DHT22;65428;53.194;6.132;2024-01-11T13:55:16;2.70;99.90
76567;DHT22;65428;53.194;6.132;2024-01-11T13:57:43;2.60;99.90
76567;DHT22;65428;53.194;6.132;2024-01-11T14:00:10;2.60;99.90
76567;DHT22;65428;53.194;6.132;2024-01-11T14:02:39;2.60;99.90
76567;DHT22;65428;53.194;6.132;2024-01-11T14:05:10;2.70;99.90
76567;DHT22;65428;53.194;6.132;2024-01-11T14:07:38;2.60;99.90
76567;DHT22;65428;53.194;6.132;2024-01-11T14:10:04;2.70;99.90
76567;DHT22;65428;53.194;6.132;2024-01-11T14:12:32;2.70;99.90
76567;DHT22;65428;53.194;6.132;2024-01-11T14:14:57;2.80;99.90
76567;DHT22;65428;53.194;6.132;2024-01-11T14:17:23;2.90;99.90
76567;DHT22;65428;53.194;6.132;2024-01-11T14:19:48;2.70;99.90
76567;DHT22;65428;53.194;6.132;2024-01-11T14:22:14;2.70;99.90
76567;DHT22;65428;53.194;6.132;2024-01-11T14:24:40;2.70;99.90
76567;DHT22;65428;53.194;6.132;2024-01-11T14:27:06;2.90;99.90
76567;DHT22;65428;53.194;6.132;2024-01-11T14:29:32;2.50;99.90
76567;DHT22;65428;53.194;6.132;2024-01-11T14:31:58;2.80;99.90
76567;DHT22;65428;53.194;6.132;2024-01-11T14:34:24;2.80;99.90
76567;DHT22;65428;53.194;6.132;2024-01-11T14:36:50;2.80;99.90
76567;DHT22;65428;53.194;6.132;2024-01-11T14:39:15;2.80;99.90
76567;DHT22;65428;53.194;6.132;2024-01-11T14:41:41;2.80;99.90
76567;DHT22;65428;53.194;6.132;2024-01-11T14:44:07;2.80;99.90
76567;DHT22;65428;53.194;6.132;2024-01-11T14:46:32;3.00;99.90
76567;DHT22;65428;53.194;6.132;2024-01-11T14:48:58;2.80;99.90
76567;DHT22;65428;53.194;6.132;2024-01-11T14:51:25;2.80;99.90
76567;DHT22;65428;53.194;6.132;2024-01-11T14:53:54;2.90;99.90
76567;DHT22;65428;53.194;6.132;2024-01-11T14:56:20;2.90;99.90
76567;DHT22;65428;53.194;6.132;2024-01-11T14:58:46;2.90;99.90
76567;DHT22;65428;53.194;6.132;2024-01-11T15:01:12;2.80;99.90
76567;DHT22;65428;53.194;6.132;2024-01-11T15:03:39;2.80;99.90
76567;DHT22;65428;53.194;6.132;2024-01-11T15:06:05;3.10;99.90
76567;DHT22;65428;53.194;6.132;2024-01-11T15:08:31;2.80;99.90
76567;DHT22;65428;53.194;6.132;2024-01-11T15:10:56;2.80;99.90
76567;DHT22;65428;53.194;6.132;2024-01-11T15:13:22;2.70;99.90
76567;DHT22;65428;53.194;6.132;2024-01-11T15:15:48;2.90;99.90
76567;DHT22;65428;53.194;6.132;2024-01-11T15:18:13;2.80;99.90
76567;DHT22;65428;53.194;6.132;2024-01-11T15:20:39;2.80;99.90
76567;DHT22;65428;53.194;6.132;2024-01-11T15:23:05;2.80;99.90
76567;DHT22;65428;53.194;6.132;2024-01-11T15:25:31;3.00;99.90
76567;DHT22;65428;53.194;6.132;2024-01-11T15:27:56;2.80;99.90
76567;DHT22;65428;53.194;6.132;2024-01-11T15:30:22;2.80;99.90
76567;DHT22;65428;53.194;6.132;2024-01-11T15:32:48;2.80;99.90
76567;DHT22;65428;53.194;6.132;2024-01-11T15:35:14;2.80;99.90
76567;DHT22;65428;53.194;6.132;2024-01-11T15:37:40;2.60;99.90
76567;DHT22;65428;53.194;6.132;2024-01-11T15:40:06;2.70;99.90
76567;DHT22;65428;53.194;6.132;2024-01-11T15:42:34;2.70;99.90
76567;DHT22;65428;53.194;6.132;2024-01-11T15:45:00;2.70;99.90
76567;DHT22;65428;53.194;6.132;2024-01-11T15:47:28;2.80;99.90
76567;DHT22;65428;53.194;6.132;2024-01-11T15:49:53;2.70;99.90
76567;DHT22;65428;53.194;6.132;2024-01-11T15:52:19;2.70;99.90
76567;DHT22;65428;53.194;6.132;2024-01-11T15:54:45;2.70;99.90
76567;DHT22;65428;53.194;6.132;2024-01-11T15:57:11;2.90;99.90